Terminal Aerodrome Forecast
Issued by NWS Burlington, VT

Home | Current Version | Previous Version | Text Only | Print | Product List | Glossary On
Versions: 1 2 3 4 5 6 7 8 9 10 11 12 13 14 15 16 17 18 19 20 21 22
000
FTUS41 KBTV 041120
TAFBTV
TAF
KBTV 041120Z 0412/0512 18007KT P6SM BKN110
     FM041400 19004KT P6SM VCSH SCT040 BKN100
     FM041700 21007G17KT 5SM +SHRA BR BKN050
     FM042300 24006KT P6SM VCSH BKN050
     FM050200 28010KT P6SM BKN070 OVC100=

USA.gov is the U.S. government's official web portal to all federal, state and local government web resources and services.